createdAt,value
2024-02-22T00:00:53.868Z,29.75
2024-02-22T00:01:53.891Z,29.79
2024-02-22T00:02:53.853Z,29.78
2024-02-22T00:03:53.851Z,29.78
2024-02-22T00:04:54.077Z,29.80
2024-02-22T00:05:53.905Z,29.78
2024-02-22T00:06:53.975Z,29.78
2024-02-22T00:07:53.913Z,29.77
2024-02-22T00:08:53.939Z,29.73
2024-02-22T00:09:53.858Z,29.82
2024-02-22T00:10:54.020Z,29.75
2024-02-22T00:11:53.947Z,29.79
2024-02-22T00:12:53.860Z,29.76
2024-02-22T00:13:53.921Z,29.83
2024-02-22T00:14:53.877Z,29.78
2024-02-22T00:15:53.892Z,29.81
2024-02-22T00:16:54.043Z,29.73
2024-02-22T00:17:53.986Z,29.78
2024-02-22T00:18:53.884Z,29.77
2024-02-22T00:19:54.525Z,29.77
2024-02-22T00:20:53.916Z,29.78
2024-02-22T00:21:53.903Z,29.75
2024-02-22T00:22:53.962Z,29.72
2024-02-22T00:23:53.988Z,29.78
2024-02-22T00:24:54.055Z,29.79
2024-02-22T00:25:54.155Z,29.79
2024-02-22T00:26:54.166Z,29.75
2024-02-22T00:27:54.210Z,29.77
2024-02-22T00:28:54.358Z,29.77
2024-02-22T00:29:54.318Z,29.81
2024-02-22T00:30:54.413Z,29.77
2024-02-22T00:31:54.484Z,29.81
2024-02-22T00:32:54.507Z,29.77
2024-02-22T00:33:54.586Z,29.82
2024-02-22T00:34:54.658Z,29.78
2024-02-22T00:35:54.649Z,29.79
2024-02-22T00:36:54.709Z,29.78
2024-02-22T00:37:54.822Z,29.78
2024-02-22T00:38:54.836Z,29.79
2024-02-22T00:39:54.903Z,29.76
2024-02-22T00:40:55.033Z,29.85
2024-02-22T00:41:55.017Z,29.81
2024-02-22T00:42:55.084Z,29.81
2024-02-22T00:43:55.215Z,29.79
2024-02-22T00:44:55.175Z,29.77
2024-02-22T00:45:55.252Z,29.82
2024-02-22T00:46:55.504Z,29.81
2024-02-22T00:47:55.436Z,29.81
2024-02-22T00:48:55.444Z,29.83
2024-02-22T00:49:55.533Z,29.77
2024-02-22T00:50:55.606Z,29.80
2024-02-22T00:51:55.599Z,29.85
2024-02-22T00:52:55.737Z,29.82
2024-02-22T00:53:55.737Z,29.80
2024-02-22T00:54:55.808Z,29.83
2024-02-22T00:55:55.889Z,29.82
2024-02-22T00:56:55.909Z,29.79
2024-02-22T00:57:56.002Z,29.80
2024-02-22T00:58:56.074Z,29.83
2024-02-22T00:59:56.123Z,29.83
2024-02-22T01:00:56.233Z,29.83
2024-02-22T01:01:56.266Z,29.82
2024-02-22T01:02:56.310Z,29.79
2024-02-22T01:03:56.445Z,29.81
2024-02-22T01:04:56.457Z,29.85
2024-02-22T01:05:56.551Z,29.82
2024-02-22T01:06:56.585Z,29.82
2024-02-22T01:07:56.737Z,29.82
2024-02-22T01:08:56.713Z,29.79
2024-02-22T01:09:56.772Z,29.85
2024-02-22T01:10:56.877Z,29.80
2024-02-22T01:11:56.958Z,29.89
2024-02-22T01:12:56.959Z,29.79
2024-02-22T01:13:57.044Z,29.81
2024-02-22T01:14:57.066Z,29.86
2024-02-22T01:15:57.201Z,29.86
2024-02-22T01:16:57.267Z,29.83
2024-02-22T01:17:57.268Z,29.83
2024-02-22T01:18:57.382Z,29.80
2024-02-22T01:19:57.553Z,29.88
2024-02-22T01:20:57.482Z,29.86
2024-02-22T01:21:57.552Z,29.85
2024-02-22T01:22:57.653Z,29.82
2024-02-22T01:23:57.666Z,29.85
2024-02-22T01:24:57.714Z,29.86
2024-02-22T01:25:57.860Z,29.85
2024-02-22T01:26:57.850Z,29.80
2024-02-22T01:27:57.909Z,29.83
2024-02-22T01:28:58.060Z,29.85
2024-02-22T01:29:58.063Z,29.85
2024-02-22T01:30:58.146Z,29.86
2024-02-22T01:31:58.228Z,29.89
2024-02-22T01:32:58.330Z,29.89
2024-02-22T01:33:58.356Z,29.86
2024-02-22T01:34:58.404Z,29.89
2024-02-22T01:35:58.450Z,29.85
2024-02-22T01:36:58.558Z,29.85
2024-02-22T01:37:58.613Z,29.86
2024-02-22T01:38:58.671Z,29.85
2024-02-22T01:39:58.724Z,29.85
2024-02-22T01:40:59.169Z,29.83
2024-02-22T01:41:58.862Z,29.85
2024-02-22T01:42:58.916Z,29.90
2024-02-22T01:43:59.061Z,29.91
2024-02-22T01:44:59.044Z,29.86
2024-02-22T01:45:59.112Z,29.92
2024-02-22T01:46:59.219Z,29.92
2024-02-22T01:47:59.304Z,29.86
2024-02-22T01:48:59.372Z,29.88
2024-02-22T01:49:59.428Z,29.86
2024-02-22T01:50:59.446Z,29.96
2024-02-22T01:51:59.602Z,29.88
2024-02-22T01:52:59.631Z,29.91
2024-02-22T01:53:59.670Z,29.89
2024-02-22T01:54:59.776Z,29.88
2024-02-22T01:55:59.999Z,29.89
2024-02-22T01:56:59.851Z,29.88
2024-02-22T01:57:59.950Z,29.85
2024-02-22T01:59:00.052Z,29.89
2024-02-22T02:00:00.058Z,29.89
2024-02-22T02:01:00.153Z,29.83
2024-02-22T02:02:00.323Z,29.83
2024-02-22T02:03:00.242Z,29.86
2024-02-22T02:04:00.367Z,29.88
2024-02-22T02:05:00.441Z,29.86
2024-02-22T02:06:00.469Z,29.88
2024-02-22T02:07:00.523Z,29.88
2024-02-22T02:08:00.597Z,29.89
2024-02-22T02:09:00.626Z,29.89
2024-02-22T02:10:00.695Z,29.86
2024-02-22T02:11:00.887Z,29.88
2024-02-22T02:12:00.893Z,29.88
2024-02-22T02:13:00.861Z,29.86
2024-02-22T02:14:00.995Z,29.89
2024-02-22T02:15:01.003Z,29.86
2024-02-22T02:16:01.076Z,29.91
2024-02-22T02:17:01.156Z,29.90
2024-02-22T02:18:01.216Z,29.93
2024-02-22T02:19:01.313Z,29.89
2024-02-22T02:20:01.306Z,29.86
2024-02-22T02:21:01.385Z,29.92
2024-02-22T02:22:01.419Z,29.90
2024-02-22T02:23:01.552Z,29.89
2024-02-22T02:24:01.550Z,29.93
2024-02-22T02:25:01.636Z,29.89
2024-02-22T02:26:01.748Z,29.92
2024-02-22T02:27:01.733Z,29.93
2024-02-22T02:28:01.819Z,29.88
2024-02-22T02:29:01.943Z,29.92
2024-02-22T02:30:01.913Z,29.89
2024-02-22T02:31:01.985Z,29.86
2024-02-22T02:32:02.121Z,29.93
2024-02-22T02:33:02.163Z,29.89
2024-02-22T02:34:02.256Z,29.91
2024-02-22T02:35:02.322Z,29.93
2024-02-22T02:36:02.321Z,29.92
2024-02-22T02:37:02.370Z,29.95
2024-02-22T02:38:02.472Z,29.93
2024-02-22T02:39:02.493Z,29.94
2024-02-22T02:40:02.589Z,29.89
2024-02-22T02:41:02.694Z,29.98
2024-02-22T02:42:02.728Z,29.92
2024-02-22T02:43:02.742Z,29.91
2024-02-22T02:44:02.932Z,29.93
2024-02-22T02:45:03.018Z,29.91
2024-02-22T02:46:03.026Z,29.91
2024-02-22T02:47:03.127Z,29.93
2024-02-22T02:48:03.227Z,29.95
2024-02-22T02:49:03.260Z,29.89
2024-02-22T02:50:03.279Z,29.91
2024-02-22T02:51:03.274Z,29.88
2024-02-22T02:52:03.346Z,29.91
2024-02-22T02:53:03.505Z,29.90
2024-02-22T02:54:03.472Z,29.92
2024-02-22T02:55:03.522Z,29.95
2024-02-22T02:56:03.613Z,29.89
2024-02-22T02:57:03.657Z,29.96
2024-02-22T02:58:03.719Z,29.90
2024-02-22T02:59:03.815Z,29.95
2024-02-22T03:00:03.852Z,29.95
2024-02-22T03:01:03.943Z,29.93
2024-02-22T03:02:04.021Z,29.97
2024-02-22T03:03:04.116Z,29.91
2024-02-22T03:04:04.125Z,29.94
2024-02-22T03:05:04.221Z,29.95
2024-02-22T03:06:04.400Z,29.93
2024-02-22T03:07:04.293Z,29.92
2024-02-22T03:08:04.368Z,29.93
2024-02-22T03:09:04.417Z,29.93
2024-02-22T03:10:04.477Z,29.96
2024-02-22T03:11:04.765Z,29.92
2024-02-22T03:12:04.706Z,29.94
2024-02-22T03:13:04.676Z,30.00
2024-02-22T03:14:04.870Z,29.93
2024-02-22T03:15:04.810Z,29.91
2024-02-22T03:16:04.871Z,29.97
2024-02-22T03:17:05.005Z,29.94
2024-02-22T03:18:05.081Z,29.92
2024-02-22T03:19:05.101Z,29.94
2024-02-22T03:20:05.184Z,29.98
2024-02-22T03:21:05.202Z,29.97
2024-02-22T03:22:05.261Z,29.93
2024-02-22T03:23:05.399Z,29.97
2024-02-22T03:24:05.391Z,29.92
2024-02-22T03:25:05.467Z,29.96
2024-02-22T03:26:05.542Z,29.93
2024-02-22T03:27:05.589Z,29.96
2024-02-22T03:28:05.650Z,29.97
2024-02-22T03:29:05.722Z,29.98
2024-02-22T03:30:05.776Z,29.99
2024-02-22T03:31:05.861Z,29.94
2024-02-22T03:32:05.910Z,29.95
2024-02-22T03:33:06.013Z,29.98
2024-02-22T03:34:06.081Z,30.03
2024-02-22T03:35:06.275Z,30.00
2024-02-22T03:36:06.150Z,29.96
2024-02-22T03:37:06.245Z,29.96
2024-02-22T03:38:06.313Z,29.96
2024-02-22T03:39:06.412Z,29.93
2024-02-22T03:40:06.441Z,29.99
2024-02-22T03:41:06.523Z,29.99
2024-02-22T03:42:06.566Z,29.99
2024-02-22T03:43:06.644Z,29.96
2024-02-22T03:44:06.730Z,29.99
2024-02-22T03:45:06.756Z,29.96
2024-02-22T03:46:06.830Z,30.00
2024-02-22T03:47:06.942Z,29.97
2024-02-22T03:48:07.078Z,30.00
2024-02-22T03:49:07.069Z,29.97
2024-02-22T03:50:07.229Z,30.00
2024-02-22T03:51:07.169Z,30.01
2024-02-22T03:52:07.246Z,29.98
2024-02-22T03:53:07.349Z,30.04
2024-02-22T03:54:07.359Z,30.00
2024-02-22T03:55:07.459Z,30.02
2024-02-22T03:56:07.548Z,30.00
2024-02-22T03:57:07.577Z,30.00
2024-02-22T03:58:08.096Z,29.97
2024-02-22T03:59:07.833Z,30.00
2024-02-22T04:00:07.906Z,30.00
2024-02-22T04:01:07.933Z,29.99
2024-02-22T04:02:07.927Z,30.00
2024-02-22T04:03:07.970Z,30.04
2024-02-22T04:04:08.084Z,30.02
2024-02-22T04:05:08.143Z,30.03
2024-02-22T04:06:08.195Z,30.02
2024-02-22T04:07:08.221Z,29.96
2024-02-22T04:08:08.297Z,29.99
2024-02-22T04:09:08.355Z,30.04
2024-02-22T04:10:08.398Z,30.03
2024-02-22T04:11:08.561Z,30.08
2024-02-22T04:12:08.591Z,30.00
2024-02-22T04:13:08.601Z,29.98
2024-02-22T04:14:08.759Z,30.02
2024-02-22T04:15:08.724Z,29.99
2024-02-22T04:16:08.773Z,29.97
2024-02-22T04:17:08.909Z,30.02
2024-02-22T04:18:09.011Z,29.96
2024-02-22T04:19:19.937Z,30.05
2024-02-22T04:20:16.290Z,30.03
2024-02-22T04:21:16.198Z,30.07
2024-02-22T04:22:16.194Z,30.05
2024-02-22T04:23:16.274Z,30.05
2024-02-22T04:24:16.197Z,30.00
2024-02-22T04:25:16.238Z,30.00
2024-02-22T04:26:16.270Z,30.00
2024-02-22T04:27:16.202Z,30.02
2024-02-22T04:28:16.209Z,30.04
2024-02-22T04:29:16.368Z,30.02
2024-02-22T04:30:16.210Z,29.97
2024-02-22T04:31:16.208Z,30.02
2024-02-22T04:32:16.262Z,29.95
2024-02-22T04:33:16.318Z,29.99
2024-02-22T04:34:16.270Z,29.96
2024-02-22T04:35:16.375Z,29.96
2024-02-22T04:36:16.233Z,29.96
2024-02-22T04:37:16.232Z,30.00
2024-02-22T04:38:16.349Z,29.99
2024-02-22T04:39:16.222Z,29.96
2024-02-22T04:40:16.242Z,29.96
2024-02-22T04:41:16.267Z,29.93
2024-02-22T04:42:16.226Z,29.95
2024-02-22T04:43:16.229Z,29.89
2024-02-22T04:44:16.294Z,29.95
2024-02-22T04:45:16.298Z,29.92
2024-02-22T04:46:16.352Z,29.94
2024-02-22T04:47:16.475Z,29.92
2024-02-22T04:48:16.551Z,29.91
2024-02-22T04:49:16.582Z,29.95
2024-02-22T04:50:16.662Z,29.92
2024-02-22T04:51:16.659Z,29.90
2024-02-22T04:52:16.657Z,29.93
2024-02-22T04:53:16.842Z,29.91
2024-02-22T04:54:16.782Z,29.90
2024-02-22T04:55:16.830Z,29.94
2024-02-22T04:56:16.956Z,29.90
2024-02-22T04:57:16.954Z,29.93
2024-02-22T04:58:16.989Z,29.86
2024-02-22T04:59:17.076Z,29.90
2024-02-22T05:00:17.112Z,29.91
2024-02-22T05:01:17.190Z,29.94
2024-02-22T05:02:17.259Z,29.90
2024-02-22T05:03:17.319Z,29.90
2024-02-22T05:04:17.370Z,29.87
2024-02-22T05:05:17.409Z,29.91
2024-02-22T05:06:17.471Z,29.91
2024-02-22T05:07:17.521Z,29.90
2024-02-22T05:08:17.668Z,29.93
2024-02-22T05:09:17.617Z,29.94
2024-02-22T05:10:17.662Z,29.86
2024-02-22T05:11:17.773Z,29.91
2024-02-22T05:12:17.756Z,29.87
2024-02-22T05:13:17.801Z,29.91
2024-02-22T05:14:17.966Z,29.91
2024-02-22T05:15:17.922Z,29.90
2024-02-22T05:16:17.974Z,29.88
2024-02-22T05:17:18.019Z,29.91
2024-02-22T05:18:18.102Z,29.89
2024-02-22T05:19:18.138Z,29.90
2024-02-22T05:20:18.232Z,29.90
2024-02-22T05:21:18.208Z,29.91
2024-02-22T05:22:18.242Z,29.90
2024-02-22T05:23:18.317Z,29.90
2024-02-22T05:24:18.338Z,29.90
2024-02-22T05:25:18.411Z,29.90
2024-02-22T05:26:18.517Z,29.89
2024-02-22T05:27:18.510Z,29.87
2024-02-22T05:28:18.542Z,29.93
2024-02-22T05:29:18.645Z,29.91
2024-02-22T05:30:18.637Z,29.89
2024-02-22T05:31:18.674Z,29.87
2024-02-22T05:32:18.854Z,29.92
2024-02-22T05:33:18.871Z,29.85
2024-02-22T05:34:18.876Z,29.86
2024-02-22T05:35:18.935Z,29.87
2024-02-22T05:36:18.873Z,29.90
2024-02-22T05:37:18.930Z,29.84
2024-02-22T05:38:19.040Z,29.86
2024-02-22T05:39:19.018Z,29.92
2024-02-22T05:40:19.055Z,29.87
2024-02-22T05:41:19.306Z,29.87
2024-02-22T05:42:19.153Z,29.89
2024-02-22T05:43:19.196Z,29.91
2024-02-22T05:44:19.364Z,29.89
2024-02-22T05:45:19.289Z,29.89
2024-02-22T05:46:19.356Z,29.91
2024-02-22T05:47:19.435Z,29.94
2024-02-22T05:48:19.573Z,29.90
2024-02-22T05:49:19.545Z,29.94
2024-02-22T05:50:19.652Z,29.90
2024-02-22T05:51:19.596Z,29.96
2024-02-22T05:52:19.846Z,29.94
2024-02-22T05:53:19.746Z,29.93
2024-02-22T05:54:19.736Z,29.90
2024-02-22T05:55:19.787Z,29.94
2024-02-22T05:56:19.867Z,29.90
2024-02-22T05:57:19.882Z,29.97
2024-02-22T05:58:19.948Z,29.93
2024-02-22T05:59:20.046Z,29.93
2024-02-22T06:00:20.028Z,29.94
2024-02-22T06:01:20.176Z,29.90
2024-02-22T06:02:20.166Z,29.94
2024-02-22T06:03:20.169Z,29.91
2024-02-22T06:04:20.252Z,29.93
2024-02-22T06:05:20.342Z,29.92
2024-02-22T06:06:20.342Z,29.91
2024-02-22T06:07:20.408Z,29.90
2024-02-22T06:08:20.470Z,29.90
2024-02-22T06:09:20.438Z,29.96
2024-02-22T06:10:20.494Z,29.94
2024-02-22T06:11:20.714Z,29.96
2024-02-22T06:12:20.641Z,29.91
2024-02-22T06:13:20.627Z,29.91
2024-02-22T06:14:20.726Z,29.92
2024-02-22T06:15:20.729Z,29.94
2024-02-22T06:16:20.798Z,29.97
2024-02-22T06:17:20.913Z,29.94
2024-02-22T06:18:20.985Z,29.97
2024-02-22T06:19:20.999Z,29.92
2024-02-22T06:20:21.084Z,29.92
2024-02-22T06:21:21.014Z,29.92
2024-02-22T06:22:21.364Z,29.92
2024-02-22T06:23:21.180Z,29.91
2024-02-22T06:24:21.120Z,29.86
2024-02-22T06:25:21.265Z,29.91
2024-02-22T06:26:21.331Z,29.86
2024-02-22T06:27:21.265Z,29.89
2024-02-22T06:28:21.318Z,29.88
2024-02-22T06:29:21.470Z,29.88
2024-02-22T06:30:21.409Z,29.91
2024-02-22T06:31:21.904Z,29.92
2024-02-22T06:32:21.523Z,29.86
2024-02-22T06:33:21.616Z,29.78
2024-02-22T06:34:21.643Z,29.04
2024-02-22T06:35:21.775Z,29.21
2024-02-22T06:36:21.794Z,29.55
2024-02-22T06:37:23.069Z,29.71
2024-02-22T06:38:21.804Z,29.97
2024-02-22T06:39:21.764Z,30.14
2024-02-22T06:40:21.750Z,30.13
2024-02-22T06:41:21.853Z,30.04
2024-02-22T06:42:21.893Z,30.21
2024-02-22T06:43:21.752Z,30.36
2024-02-22T06:44:21.894Z,30.31
2024-02-22T06:45:21.753Z,30.67
2024-02-22T06:46:21.796Z,31.00
2024-02-22T06:47:21.759Z,30.84
2024-02-22T06:48:21.900Z,30.88
2024-02-22T06:49:21.815Z,30.85
2024-02-22T06:50:21.877Z,31.09
2024-02-22T06:51:21.770Z,31.29
2024-02-22T06:52:21.851Z,31.56
2024-02-22T06:53:21.795Z,31.95
2024-02-22T06:54:21.773Z,31.87
2024-02-22T06:55:21.770Z,32.16
2024-02-22T06:56:21.835Z,32.60
2024-02-22T06:57:21.765Z,32.60
2024-02-22T06:58:21.773Z,33.03
2024-02-22T06:59:22.080Z,32.85
2024-02-22T07:00:21.838Z,32.97
2024-02-22T07:01:21.837Z,33.58
2024-02-22T07:02:21.855Z,33.54
2024-02-22T07:03:21.841Z,33.67
2024-02-22T07:04:21.931Z,33.67
2024-02-22T07:05:21.870Z,33.81
2024-02-22T07:06:21.903Z,33.85
2024-02-22T07:07:21.805Z,33.97
2024-02-22T07:08:21.871Z,34.13
2024-02-22T07:09:21.801Z,34.14
2024-02-22T07:10:21.885Z,34.19
2024-02-22T07:11:22.053Z,34.33
2024-02-22T07:12:21.831Z,34.36
2024-02-22T07:13:22.016Z,34.59
2024-02-22T07:14:21.860Z,34.61
2024-02-22T07:15:21.827Z,34.79
2024-02-22T07:16:21.849Z,34.86
2024-02-22T07:17:23.349Z,35.19
2024-02-22T07:18:21.940Z,35.16
2024-02-22T07:19:21.933Z,35.25
2024-02-22T07:20:21.980Z,35.29
2024-02-22T07:21:22.040Z,35.51
2024-02-22T07:22:22.875Z,35.61
2024-02-22T07:23:22.182Z,35.70
2024-02-22T07:24:22.138Z,35.79
2024-02-22T07:25:22.361Z,35.93
2024-02-22T07:26:22.256Z,36.01
2024-02-22T07:27:22.306Z,35.89
2024-02-22T07:28:22.339Z,35.99
2024-02-22T07:29:22.444Z,36.23
2024-02-22T07:30:22.420Z,36.24
2024-02-22T07:31:22.484Z,36.40
2024-02-22T07:32:22.668Z,36.43
2024-02-22T07:33:22.705Z,36.51
2024-02-22T07:34:22.763Z,36.70
2024-02-22T07:35:22.706Z,37.00
2024-02-22T07:36:22.716Z,37.06
2024-02-22T07:37:22.771Z,37.25
2024-02-22T07:38:22.840Z,37.17
2024-02-22T07:39:22.837Z,37.07
2024-02-22T07:40:22.843Z,37.06
2024-02-22T07:41:22.889Z,35.77
2024-02-22T07:42:23.402Z,35.56
2024-02-22T07:43:22.966Z,35.83
2024-02-22T07:44:24.945Z,33.40
2024-02-22T07:45:23.030Z,34.25
2024-02-22T07:46:23.076Z,34.54
2024-02-22T07:47:23.500Z,34.58
2024-02-22T07:48:23.283Z,34.50
2024-02-22T07:49:23.285Z,34.29
2024-02-22T07:50:23.345Z,33.81
2024-02-22T07:51:23.377Z,33.60
2024-02-22T07:52:23.907Z,33.41
2024-02-22T07:53:23.521Z,33.34
2024-02-22T07:54:23.549Z,33.31
2024-02-22T07:55:23.604Z,33.23
2024-02-22T07:56:23.704Z,33.09
2024-02-22T07:57:23.696Z,32.89
2024-02-22T07:58:23.695Z,32.78
2024-02-22T07:59:23.795Z,32.86
2024-02-22T08:00:23.777Z,32.73
2024-02-22T08:01:23.788Z,32.81
2024-02-22T08:02:23.785Z,32.68
2024-02-22T08:03:23.735Z,32.58
2024-02-22T08:04:23.805Z,32.14
2024-02-22T08:05:23.926Z,32.47
2024-02-22T08:06:23.812Z,32.19
2024-02-22T08:07:23.782Z,32.32
2024-02-22T08:08:23.837Z,32.05
2024-02-22T08:09:23.807Z,31.99
2024-02-22T08:10:23.835Z,31.95
2024-02-22T08:11:23.939Z,32.06
2024-02-22T08:12:24.129Z,31.98
2024-02-22T08:13:23.890Z,31.67
2024-02-22T08:14:23.928Z,31.68
2024-02-22T08:15:23.932Z,31.77
2024-02-22T08:16:24.011Z,30.97
2024-02-22T08:17:24.008Z,31.23
2024-02-22T08:18:24.104Z,30.99
2024-02-22T08:19:24.064Z,31.25
2024-02-22T08:20:24.296Z,31.10
2024-02-22T08:21:24.162Z,31.24
2024-02-22T08:22:24.416Z,31.05
2024-02-22T08:23:24.153Z,31.04
2024-02-22T08:24:24.150Z,30.71
2024-02-22T08:25:25.907Z,30.73
2024-02-22T08:26:24.438Z,30.77
2024-02-22T08:27:24.412Z,30.91
2024-02-22T08:28:24.431Z,30.18
2024-02-22T08:29:24.203Z,30.23
2024-02-22T08:30:24.197Z,30.32
2024-02-22T08:31:24.173Z,30.66
2024-02-22T08:32:24.491Z,30.01
2024-02-22T08:33:24.297Z,30.12
2024-02-22T08:34:24.303Z,29.47
2024-02-22T08:35:24.304Z,30.20
2024-02-22T08:36:24.182Z,30.37
2024-02-22T08:37:24.192Z,30.38
2024-02-22T08:38:24.506Z,30.64
2024-02-22T08:39:24.269Z,30.83
2024-02-22T08:40:34.762Z,30.84
2024-02-22T08:41:25.239Z,30.97
2024-02-22T08:42:24.194Z,30.97
2024-02-22T08:43:24.413Z,31.11
2024-02-22T08:44:24.268Z,31.16
2024-02-22T08:45:24.228Z,31.26
2024-02-22T08:46:24.744Z,31.40
2024-02-22T08:47:32.551Z,31.60
2024-02-22T08:48:32.576Z,31.57
2024-02-22T08:49:32.469Z,31.74
2024-02-22T08:50:32.419Z,31.79
2024-02-22T08:51:32.335Z,31.81
2024-02-22T08:52:32.416Z,31.82
2024-02-22T08:53:32.390Z,31.86
2024-02-22T08:54:32.342Z,31.88
2024-02-22T08:55:32.446Z,31.93
2024-02-22T08:56:32.447Z,32.09
2024-02-22T08:57:39.337Z,32.09
2024-02-22T08:58:33.482Z,32.29
2024-02-22T08:59:32.454Z,32.33
2024-02-22T09:00:32.422Z,32.59
2024-02-22T09:01:32.395Z,32.55
2024-02-22T09:02:32.337Z,32.59
2024-02-22T09:03:32.459Z,32.53
2024-02-22T09:04:32.438Z,32.79
2024-02-22T09:05:32.418Z,32.68
2024-02-22T09:06:32.479Z,32.69
2024-02-22T09:07:32.448Z,32.78
2024-02-22T09:08:32.400Z,33.09
2024-02-22T09:09:32.346Z,32.92
2024-02-22T09:10:32.348Z,32.80
2024-02-22T09:11:32.454Z,32.85
2024-02-22T09:12:32.476Z,33.07
2024-02-22T09:13:32.548Z,32.95
2024-02-22T09:14:32.444Z,32.92
2024-02-22T09:15:32.462Z,32.86
2024-02-22T09:16:32.551Z,32.86
2024-02-22T09:17:32.538Z,32.75
2024-02-22T09:18:32.583Z,31.89
2024-02-22T09:19:32.596Z,32.58
2024-02-22T09:20:32.597Z,32.52
2024-02-22T09:21:32.570Z,32.13
2024-02-22T09:22:33.068Z,32.14
2024-02-22T09:23:32.746Z,32.16
2024-02-22T09:24:32.746Z,32.39
2024-02-22T09:25:32.927Z,32.32
2024-02-22T09:26:32.845Z,30.43
2024-02-22T09:27:32.879Z,31.34
2024-02-22T09:28:33.478Z,31.46
2024-02-22T09:29:33.452Z,31.54
2024-02-22T09:30:33.016Z,31.41
2024-02-22T09:31:33.125Z,31.02
2024-02-22T09:32:33.471Z,30.74
2024-02-22T09:33:33.232Z,30.63
2024-02-22T09:34:33.359Z,30.52
2024-02-22T09:35:33.334Z,30.21
2024-02-22T09:36:33.378Z,30.21
2024-02-22T09:37:33.553Z,29.54
2024-02-22T09:38:33.475Z,29.24
2024-02-22T09:39:33.982Z,29.37
2024-02-22T09:40:33.422Z,29.19
2024-02-22T09:41:33.431Z,29.70
2024-02-22T09:42:33.453Z,29.45
2024-02-22T09:43:33.482Z,29.57
2024-02-22T09:44:33.479Z,29.51
2024-02-22T09:45:33.513Z,29.58
2024-02-22T09:46:33.615Z,29.63
2024-02-22T09:47:34.132Z,29.74
2024-02-22T09:48:33.871Z,29.80
2024-02-22T09:49:33.894Z,29.87
2024-02-22T09:50:33.947Z,29.98
2024-02-22T09:51:33.910Z,30.24
2024-02-22T09:52:33.998Z,30.31
2024-02-22T09:53:34.133Z,30.24
2024-02-22T09:54:34.119Z,30.13
2024-02-22T09:55:34.192Z,30.69
2024-02-22T09:56:34.184Z,30.80
2024-02-22T09:57:34.227Z,29.69
2024-02-22T09:58:34.336Z,29.29
2024-02-22T09:59:34.317Z,30.39
2024-02-22T10:00:34.357Z,30.50
2024-02-22T10:01:34.445Z,30.45
2024-02-22T10:02:34.457Z,30.94
2024-02-22T10:03:34.485Z,30.73
2024-02-22T10:04:34.521Z,31.41
2024-02-22T10:05:34.611Z,31.73
2024-02-22T10:06:34.772Z,31.99
2024-02-22T10:07:34.716Z,32.07
2024-02-22T10:08:34.713Z,32.74
2024-02-22T10:09:34.721Z,32.86
2024-02-22T10:10:34.825Z,32.91
2024-02-22T10:11:35.007Z,33.15
2024-02-22T10:12:36.323Z,33.14
2024-02-22T10:13:35.238Z,33.28
2024-02-22T10:14:35.113Z,33.70
2024-02-22T10:15:35.152Z,33.70
2024-02-22T10:16:35.260Z,34.18
2024-02-22T10:17:35.348Z,34.20
2024-02-22T10:18:35.405Z,34.23
2024-02-22T10:19:35.472Z,34.69
2024-02-22T10:20:35.805Z,34.63
2024-02-22T10:21:35.515Z,34.52
2024-02-22T10:22:35.621Z,34.74
2024-02-22T10:23:35.627Z,34.98
2024-02-22T10:24:35.686Z,34.82
2024-02-22T10:25:35.942Z,34.95
2024-02-22T10:26:35.896Z,35.30
2024-02-22T10:27:35.898Z,35.47
2024-02-22T10:28:35.969Z,35.34
2024-02-22T10:29:35.986Z,35.74
2024-02-22T10:30:36.077Z,35.64
2024-02-22T10:31:36.175Z,36.90
2024-02-22T10:32:36.278Z,37.01
2024-02-22T10:33:36.385Z,36.62
2024-02-22T10:34:36.405Z,37.73
2024-02-22T10:35:36.444Z,37.05
2024-02-22T10:36:36.447Z,36.18
2024-02-22T10:37:36.579Z,36.21
2024-02-22T10:38:36.470Z,35.98
2024-02-22T10:39:36.525Z,36.03
2024-02-22T10:40:36.892Z,35.85
2024-02-22T10:41:36.572Z,36.24
2024-02-22T10:42:37.002Z,35.84
2024-02-22T10:43:36.805Z,36.15
2024-02-22T10:44:36.805Z,36.42
2024-02-22T10:45:36.767Z,35.89
2024-02-22T10:46:36.979Z,36.29
2024-02-22T10:47:37.051Z,36.86
2024-02-22T10:48:37.009Z,36.32
2024-02-22T10:49:36.943Z,37.42
2024-02-22T10:50:37.003Z,37.58
2024-02-22T10:51:37.072Z,37.40
2024-02-22T10:52:37.515Z,37.39
2024-02-22T10:53:37.037Z,37.81
2024-02-22T10:54:37.094Z,35.42
2024-02-22T10:55:37.189Z,35.56
2024-02-22T10:56:37.291Z,34.95
2024-02-22T10:57:37.989Z,34.98
2024-02-22T10:58:37.365Z,35.21
2024-02-22T10:59:37.433Z,31.39
2024-02-22T11:00:37.432Z,30.96
2024-02-22T11:01:37.434Z,30.96
2024-02-22T11:02:37.458Z,30.08
2024-02-22T11:03:37.519Z,30.20
2024-02-22T11:04:37.564Z,30.99
2024-02-22T11:05:37.559Z,30.05
2024-02-22T11:06:37.586Z,29.87
2024-02-22T11:07:37.621Z,28.59
2024-02-22T11:08:37.598Z,28.20
2024-02-22T11:09:37.643Z,28.76
2024-02-22T11:10:37.684Z,29.18
2024-02-22T11:11:37.881Z,28.22
2024-02-22T11:12:37.776Z,29.23
2024-02-22T11:13:38.022Z,27.91
2024-02-22T11:14:37.870Z,27.47
2024-02-22T11:15:37.914Z,26.54
2024-02-22T11:16:38.015Z,25.67
2024-02-22T11:17:38.039Z,24.90
2024-02-22T11:18:38.101Z,25.11
2024-02-22T11:19:38.182Z,24.78
2024-02-22T11:20:38.151Z,24.67
2024-02-22T11:21:38.193Z,26.04
2024-02-22T11:22:38.352Z,25.37
2024-02-22T11:23:39.092Z,26.38
2024-02-22T11:24:38.377Z,26.86
2024-02-22T11:25:38.427Z,27.12
2024-02-22T11:26:38.464Z,27.35
2024-02-22T11:27:38.530Z,24.42
2024-02-22T11:28:38.553Z,26.62
2024-02-22T11:29:38.559Z,26.55
2024-02-22T11:30:38.625Z,27.50
2024-02-22T11:31:38.698Z,27.28
2024-02-22T11:32:38.802Z,26.71
2024-02-22T11:33:39.586Z,27.50
2024-02-22T11:34:38.931Z,25.58
2024-02-22T11:35:38.991Z,24.87
2024-02-22T11:36:38.956Z,26.21
2024-02-22T11:37:39.049Z,26.48
2024-02-22T11:38:39.064Z,25.33
2024-02-22T11:39:39.099Z,25.24
2024-02-22T11:40:39.402Z,26.55
2024-02-22T11:41:39.206Z,24.64
2024-02-22T11:42:39.299Z,24.74
2024-02-22T11:43:39.356Z,26.10
2024-02-22T11:44:39.392Z,25.71
2024-02-22T11:45:39.412Z,25.42
2024-02-22T11:46:39.577Z,24.86
2024-02-22T11:47:39.584Z,25.63
2024-02-22T11:48:39.792Z,25.25
2024-02-22T11:49:39.670Z,24.62
2024-02-22T11:50:39.648Z,24.95
2024-02-22T11:51:39.699Z,24.91
2024-02-22T11:52:40.027Z,25.47
2024-02-22T11:53:40.425Z,24.47
2024-02-22T11:54:39.844Z,24.44
2024-02-22T11:55:39.951Z,24.83
2024-02-22T11:56:39.984Z,24.72
2024-02-22T11:57:40.042Z,24.63
2024-02-22T11:58:40.153Z,25.10
2024-02-22T11:59:40.120Z,24.79
2024-02-22T12:00:40.322Z,25.00
2024-02-22T12:01:40.210Z,24.44
2024-02-22T12:02:40.224Z,24.77
2024-02-22T12:03:40.220Z,25.15
2024-02-22T12:04:40.339Z,23.88
2024-02-22T12:05:40.396Z,25.06
2024-02-22T12:06:40.484Z,24.75
2024-02-22T12:07:40.701Z,24.46
2024-02-22T12:08:40.491Z,25.12
2024-02-22T12:09:40.565Z,24.99
2024-02-22T12:10:40.728Z,24.95
2024-02-22T12:11:40.753Z,25.49
2024-02-22T12:12:40.998Z,25.55
2024-02-22T12:13:40.878Z,25.19
2024-02-22T12:14:40.879Z,24.78
2024-02-22T12:15:40.962Z,25.24
2024-02-22T12:16:41.035Z,25.41
2024-02-22T12:17:41.191Z,25.46
2024-02-22T12:18:41.258Z,25.54
2024-02-22T12:19:41.114Z,25.34
2024-02-22T12:20:41.200Z,25.27
2024-02-22T12:21:41.305Z,25.40
2024-02-22T12:22:41.197Z,25.27
2024-02-22T12:23:41.177Z,25.31
2024-02-22T12:24:41.183Z,25.16
2024-02-22T12:25:41.263Z,25.19
2024-02-22T12:26:41.279Z,25.11
2024-02-22T12:27:41.548Z,25.17
2024-02-22T12:28:41.566Z,25.18
2024-02-22T12:29:41.471Z,25.12
2024-02-22T12:30:41.568Z,25.08
2024-02-22T12:31:41.662Z,25.09
2024-02-22T12:32:41.707Z,25.10
2024-02-22T12:33:42.089Z,25.13
2024-02-22T12:34:41.858Z,25.84
2024-02-22T12:35:41.949Z,25.41
2024-02-22T12:36:41.985Z,25.57
2024-02-22T12:37:42.044Z,25.05
2024-02-22T12:38:41.991Z,25.38
2024-02-22T12:39:42.200Z,25.52
2024-02-22T12:40:42.090Z,25.76
2024-02-22T12:41:42.095Z,25.83
2024-02-22T12:42:42.064Z,26.01
2024-02-22T12:43:42.144Z,25.36
2024-02-22T12:44:42.080Z,24.77
2024-02-22T12:45:42.145Z,26.73
2024-02-22T12:46:42.196Z,26.83
2024-02-22T12:47:42.257Z,27.34
2024-02-22T12:48:42.232Z,27.44
2024-02-22T12:49:42.230Z,27.48
2024-02-22T12:50:42.225Z,27.53
2024-02-22T12:51:42.242Z,27.53
2024-02-22T12:52:42.336Z,27.43
2024-02-22T12:53:42.258Z,27.48